Terminal Aerodrome Forecast
Issued by NWS Sterling, VA

Home | Current Version | Previous Version | Text Only | Print | Product List | Glossary On
Versions: 1 2 3 4 5 6 7 8 9 10 11 12 13 14 15 16
000
FTUS41 KLWX 012300
TAFMRB
TAF
KMRB 012328Z 0200/0224 VRB03KT P6SM FEW090 SCT250
     FM020900 VRB03KT 3SM BR SCT050
     FM021200 24005KT P6SM SCT090
     FM021800 24010KT P6SM BKN050=

USA.gov is the U.S. government's official web portal to all federal, state and local government web resources and services.